PWSweather.com
Personal Weather Stations
Station Observations
KMNZUMBR2
Covered Bridge Park, Zumbrota, MN 55992

Covered Bridge ParkZumbrota, MN 55992

Lat: 44.302051, Lon: -92.674974

Elevation: 928

Station Type: Davis Vantage Pro 2 Plus

Latest ConditionsUpdated 4:20:01 PM CDT Thursday, Sep 21, 2017
Currently Today's Max Today's Min Today's Average
Temperature 83.5°F28.6°C 84.0°F28.9°C 46.6°F8.1°C 60.6°F15.9°C
Dew Point 70.5°F21.4°C 70.9°F21.6°C 46.1°F7.8°C 56.5°F13.6°C
Winds 3.5 mph S5.6 kmh S 6.9 mph SE11.1 kmh SE - 1.8 mph 2.9 kmh
Wind Gusts 9.2 mph14.8 kmh 19.6 mph31.5 kmh - -
Humidity 65% 99% 63% 88%
Pressure 29.78 in1008.5 mb 29.95 in1014.2 mb 29.78 in1008.5 mb -
Hour Temp Dew Point Humidity Winds Wind Gusts Pressure Precip Precip Rate Daily Precip Total
04:20 PM 83.5°F28.6°C 70.5°F21.4°C 65% 3.5 mph S5.6 kmh S 9.2 mph14.8 kmh 29.78 in1008.5 mb - 0.00 in0.0 mm 0.00 in0.0 mm
04:10 PM 84.0°F28.9°C 70.5°F21.4°C 64% 6.9 mph SE11.1 kmh SE 9.2 mph14.8 kmh 29.79 in1008.8 mb - 0.00 in0.0 mm 0.00 in0.0 mm
04:00 PM 83.8°F28.8°C 69.9°F21.1°C 63% 5.8 mph S9.3 kmh S 8.1 mph13.0 kmh 29.79 in1008.8 mb - 0.00 in0.0 mm 0.00 in0.0 mm
03:50 PM 83.7°F28.7°C 70.3°F21.3°C 64% 5.8 mph SE9.3 kmh SE 9.2 mph14.8 kmh 29.79 in1008.8 mb - 0.00 in0.0 mm 0.00 in0.0 mm
03:40 PM 83.3°F28.5°C 70.3°F21.3°C 65% 6.9 mph SE11.1 kmh SE 12.7 mph20.4 kmh 29.80 in1009.1 mb - 0.00 in0.0 mm 0.00 in0.0 mm
03:30 PM 83.6°F28.7°C 70.6°F21.4°C 65% 4.6 mph SSE7.4 kmh SSE 9.2 mph14.8 kmh 29.80 in1009.1 mb - 0.00 in0.0 mm 0.00 in0.0 mm
03:20 PM 82.8°F28.2°C 70.7°F21.5°C 67% 3.5 mph SE5.6 kmh SE 9.2 mph14.8 kmh 29.81 in1009.5 mb - 0.00 in0.0 mm 0.00 in0.0 mm
03:10 PM 82.9°F28.3°C 70.8°F21.6°C 67% 5.8 mph SE9.3 kmh SE 10.4 mph16.7 kmh 29.82 in1009.8 mb - 0.00 in0.0 mm 0.00 in0.0 mm
03:00 PM 82.4°F28.0°C 70.3°F21.3°C 67% 2.3 mph SE3.7 kmh SE 6.9 mph11.1 kmh 29.82 in1009.8 mb - 0.00 in0.0 mm 0.00 in0.0 mm
02:50 PM 81.2°F27.3°C 70.5°F21.4°C 70% 3.5 mph S5.6 kmh S 6.9 mph11.1 kmh 29.82 in1009.8 mb - 0.00 in0.0 mm 0.00 in0.0 mm
02:40 PM 81.3°F27.4°C 70.6°F21.4°C 70% 4.6 mph SSE7.4 kmh SSE 10.4 mph16.7 kmh 29.83 in1010.2 mb - 0.00 in0.0 mm 0.00 in0.0 mm
02:30 PM 80.4°F26.9°C 70.9°F21.6°C 73% 2.3 mph SE3.7 kmh SE 3.5 mph5.6 kmh 29.83 in1010.2 mb - 0.00 in0.0 mm 0.00 in0.0 mm
02:20 PM 80.4°F26.9°C 70.2°F21.2°C 71% 4.6 mph SSE7.4 kmh SSE 6.9 mph11.1 kmh 29.83 in1010.2 mb - 0.00 in0.0 mm 0.00 in0.0 mm
02:10 PM 79.9°F26.6°C 69.7°F20.9°C 71% 5.8 mph SE9.3 kmh SE 12.7 mph20.4 kmh 29.84 in1010.5 mb - 0.00 in0.0 mm 0.00 in0.0 mm
02:00 PM 79.7°F26.5°C 69.5°F20.8°C 71% 6.9 mph S11.1 kmh S 11.5 mph18.5 kmh 29.85 in1010.8 mb - 0.00 in0.0 mm 0.00 in0.0 mm
01:50 PM 80.8°F27.1°C 70.9°F21.6°C 72% 4.6 mph SSE7.4 kmh SSE 11.5 mph18.5 kmh 29.84 in1010.5 mb - 0.00 in0.0 mm 0.00 in0.0 mm
01:40 PM 79.6°F26.4°C 70.1°F21.2°C 73% 6.9 mph SSE11.1 kmh SSE 11.5 mph18.5 kmh 29.85 in1010.8 mb - 0.00 in0.0 mm 0.00 in0.0 mm
01:30 PM 79.1°F26.2°C 69.7°F20.9°C 73% 4.6 mph SE7.4 kmh SE 6.9 mph11.1 kmh 29.85 in1010.8 mb - 0.00 in0.0 mm 0.00 in0.0 mm
01:20 PM 78.8°F26.0°C 69.4°F20.8°C 73% 4.6 mph SE7.4 kmh SE 19.6 mph31.5 kmh 29.85 in1010.8 mb - 0.00 in0.0 mm 0.00 in0.0 mm
01:10 PM 78.8°F26.0°C 69.0°F20.6°C 72% 6.9 mph SE11.1 kmh SE 10.4 mph16.7 kmh 29.86 in1011.2 mb - 0.00 in0.0 mm 0.00 in0.0 mm
01:00 PM 78.1°F25.6°C 69.1°F20.6°C 74% 5.8 mph SE9.3 kmh SE 9.2 mph14.8 kmh 29.86 in1011.2 mb - 0.00 in0.0 mm 0.00 in0.0 mm
12:50 PM 77.0°F25.0°C 68.8°F20.4°C 76% 1.2 mph ESE1.9 kmh ESE 3.5 mph5.6 kmh 29.87 in1011.5 mb - 0.00 in0.0 mm 0.00 in0.0 mm
12:40 PM 74.9°F23.8°C 67.2°F19.6°C 77% 5.8 mph SE9.3 kmh SE 9.2 mph14.8 kmh 29.87 in1011.5 mb - 0.00 in0.0 mm 0.00 in0.0 mm
12:30 PM 73.9°F23.3°C 66.2°F19.0°C 77% 4.6 mph SE7.4 kmh SE 9.2 mph14.8 kmh 29.88 in1011.9 mb - 0.00 in0.0 mm 0.00 in0.0 mm
12:20 PM 73.8°F23.2°C 65.8°F18.8°C 76% 2.3 mph SSE3.7 kmh SSE 11.5 mph18.5 kmh 29.88 in1011.9 mb - 0.00 in0.0 mm 0.00 in0.0 mm
12:10 PM 73.4°F23.0°C 66.1°F18.9°C 78% 4.6 mph ESE7.4 kmh ESE 10.4 mph16.7 kmh 29.89 in1012.2 mb - 0.00 in0.0 mm 0.00 in0.0 mm
12:00 PM 73.4°F23.0°C 65.7°F18.7°C 77% 3.5 mph S5.6 kmh S 9.2 mph14.8 kmh 29.89 in1012.2 mb - 0.00 in0.0 mm 0.00 in0.0 mm
11:50 AM 73.3°F22.9°C 65.2°F18.4°C 76% 1.2 mph SSE1.9 kmh SSE 3.5 mph5.6 kmh 29.89 in1012.2 mb - 0.00 in0.0 mm 0.00 in0.0 mm
11:40 AM 73.4°F23.0°C 65.0°F18.3°C 75% 5.8 mph SE9.3 kmh SE 11.5 mph18.5 kmh 29.90 in1012.5 mb - 0.00 in0.0 mm 0.00 in0.0 mm
11:30 AM 73.5°F23.1°C 65.1°F18.4°C 75% 4.6 mph SSE7.4 kmh SSE 11.5 mph18.5 kmh 29.90 in1012.5 mb - 0.00 in0.0 mm 0.00 in0.0 mm
11:20 AM 72.6°F22.6°C 64.6°F18.1°C 76% 1.2 mph SE1.9 kmh SE 6.9 mph11.1 kmh 29.91 in1012.9 mb - 0.00 in0.0 mm 0.00 in0.0 mm
11:10 AM 72.1°F22.3°C 64.1°F17.8°C 76% 3.5 mph S5.6 kmh S 4.6 mph7.4 kmh 29.91 in1012.9 mb - 0.00 in0.0 mm 0.00 in0.0 mm
11:00 AM 71.1°F21.7°C 63.5°F17.5°C 77% 3.5 mph SE5.6 kmh SE 5.8 mph9.3 kmh 29.91 in1012.9 mb - 0.00 in0.0 mm 0.00 in0.0 mm
10:50 AM 70.4°F21.3°C 62.1°F16.7°C 75% 3.5 mph SE5.6 kmh SE 6.9 mph11.1 kmh 29.92 in1013.2 mb - 0.00 in0.0 mm 0.00 in0.0 mm
10:40 AM 69.6°F20.9°C 61.7°F16.5°C 76% 4.6 mph E7.4 kmh E 6.9 mph11.1 kmh 29.93 in1013.5 mb - 0.00 in0.0 mm 0.00 in0.0 mm
10:30 AM 68.1°F20.1°C 61.0°F16.1°C 78% 2.3 mph SE3.7 kmh SE 3.5 mph5.6 kmh 29.92 in1013.2 mb - 0.00 in0.0 mm 0.00 in0.0 mm
10:20 AM 66.6°F19.2°C 60.3°F15.7°C 80% Calm Calm 3.5 mph5.6 kmh 29.92 in1013.2 mb - 0.00 in0.0 mm 0.00 in0.0 mm
10:10 AM 65.4°F18.6°C 59.8°F15.4°C 82% 2.3 mph SSE3.7 kmh SSE 8.1 mph13.0 kmh 29.93 in1013.5 mb - 0.00 in0.0 mm 0.00 in0.0 mm
10:00 AM 64.0°F17.8°C 59.8°F15.4°C 86% 1.2 mph SE1.9 kmh SE 5.8 mph9.3 kmh 29.93 in1013.5 mb - 0.00 in0.0 mm 0.00 in0.0 mm
09:50 AM 62.6°F17.0°C 59.3°F15.2°C 89% 2.3 mph ESE3.7 kmh ESE 4.6 mph7.4 kmh 29.94 in1013.9 mb - 0.00 in0.0 mm 0.00 in0.0 mm
09:40 AM 60.9°F16.1°C 58.9°F14.9°C 93% 2.3 mph E3.7 kmh E 3.5 mph5.6 kmh 29.94 in1013.9 mb - 0.00 in0.0 mm 0.00 in0.0 mm
09:30 AM 59.6°F15.3°C 58.1°F14.5°C 95% 4.6 mph SE7.4 kmh SE 6.9 mph11.1 kmh 29.94 in1013.9 mb - 0.00 in0.0 mm 0.00 in0.0 mm
09:20 AM 58.6°F14.8°C 57.8°F14.3°C 97% 5.8 mph ESE9.3 kmh ESE 6.9 mph11.1 kmh 29.95 in1014.2 mb - 0.00 in0.0 mm 0.00 in0.0 mm
09:10 AM 57.5°F14.2°C 57.2°F14.0°C 99% 1.2 mph SSE1.9 kmh SSE 4.6 mph7.4 kmh 29.94 in1013.9 mb - 0.00 in0.0 mm 0.00 in0.0 mm
09:00 AM 56.3°F13.5°C 56.0°F13.3°C 99% 2.3 mph SE3.7 kmh SE 3.5 mph5.6 kmh 29.94 in1013.9 mb - 0.00 in0.0 mm 0.00 in0.0 mm
08:50 AM 55.3°F12.9°C 55.0°F12.8°C 99% 2.3 mph ESE3.7 kmh ESE 3.5 mph5.6 kmh 29.94 in1013.9 mb - 0.00 in0.0 mm 0.00 in0.0 mm
08:40 AM 53.8°F12.1°C 53.5°F11.9°C 99% Calm Calm -- 29.93 in1013.5 mb - 0.00 in0.0 mm 0.00 in0.0 mm
08:30 AM 52.0°F11.1°C 51.7°F10.9°C 99% Calm Calm -- 29.93 in1013.5 mb - 0.00 in0.0 mm 0.00 in0.0 mm
08:20 AM 50.8°F10.4°C 50.2°F10.1°C 98% Calm Calm -- 29.94 in1013.9 mb - 0.00 in0.0 mm 0.00 in0.0 mm
08:10 AM 49.3°F9.6°C 48.8°F9.3°C 98% Calm Calm -- 29.94 in1013.9 mb - 0.00 in0.0 mm 0.00 in0.0 mm
08:00 AM 48.6°F9.2°C 48.1°F8.9°C 98% Calm Calm -- 29.94 in1013.9 mb - 0.00 in0.0 mm 0.00 in0.0 mm
07:50 AM 48.1°F8.9°C 47.5°F8.6°C 98% Calm Calm -- 29.95 in1014.2 mb - 0.00 in0.0 mm 0.00 in0.0 mm
07:40 AM 47.6°F8.7°C 47.1°F8.4°C 98% Calm Calm -- 29.95 in1014.2 mb - 0.00 in0.0 mm 0.00 in0.0 mm
07:30 AM 46.7°F8.2°C 46.2°F7.9°C 98% Calm Calm -- 29.95 in1014.2 mb - 0.00 in0.0 mm 0.00 in0.0 mm
07:20 AM 46.6°F8.1°C 46.1°F7.8°C 98% Calm Calm -- 29.95 in1014.2 mb - 0.00 in0.0 mm 0.00 in0.0 mm
07:10 AM 46.8°F8.2°C 46.3°F7.9°C 98% Calm Calm -- 29.95 in1014.2 mb - 0.00 in0.0 mm 0.00 in0.0 mm
07:00 AM 46.9°F8.3°C 46.4°F8.0°C 98% Calm Calm -- 29.95 in1014.2 mb - 0.00 in0.0 mm 0.00 in0.0 mm
06:50 AM 47.1°F8.4°C 46.6°F8.1°C 98% Calm Calm -- 29.95 in1014.2 mb - 0.00 in0.0 mm 0.00 in0.0 mm
06:40 AM 46.9°F8.3°C 46.4°F8.0°C 98% Calm Calm -- 29.95 in1014.2 mb - 0.00 in0.0 mm 0.00 in0.0 mm
06:30 AM 46.8°F8.2°C 46.3°F7.9°C 98% Calm Calm -- 29.95 in1014.2 mb - 0.00 in0.0 mm 0.00 in0.0 mm
06:20 AM 46.7°F8.2°C 46.2°F7.9°C 98% Calm Calm -- 29.95 in1014.2 mb - 0.00 in0.0 mm 0.00 in0.0 mm
06:10 AM 46.8°F8.2°C 46.3°F7.9°C 98% Calm Calm -- 29.95 in1014.2 mb - 0.00 in0.0 mm 0.00 in0.0 mm
06:00 AM 46.7°F8.2°C 46.2°F7.9°C 98% Calm Calm -- 29.95 in1014.2 mb - 0.00 in0.0 mm 0.00 in0.0 mm
05:50 AM 47.2°F8.4°C 46.7°F8.2°C 98% Calm Calm -- 29.95 in1014.2 mb - 0.00 in0.0 mm 0.00 in0.0 mm
05:40 AM 47.4°F8.6°C 46.9°F8.3°C 98% Calm Calm -- 29.94 in1013.9 mb - 0.00 in0.0 mm 0.00 in0.0 mm
05:30 AM 47.7°F8.7°C 47.2°F8.4°C 98% Calm Calm -- 29.95 in1014.2 mb - 0.00 in0.0 mm 0.00 in0.0 mm
05:20 AM 47.5°F8.6°C 47.0°F8.3°C 98% Calm Calm -- 29.95 in1014.2 mb - 0.00 in0.0 mm 0.00 in0.0 mm
05:10 AM 47.6°F8.7°C 47.1°F8.4°C 98% Calm Calm -- 29.94 in1013.9 mb - 0.00 in0.0 mm 0.00 in0.0 mm
05:00 AM 47.6°F8.7°C 47.1°F8.4°C 98% Calm Calm -- 29.94 in1013.9 mb - 0.00 in0.0 mm 0.00 in0.0 mm
04:50 AM 47.7°F8.7°C 47.2°F8.4°C 98% Calm Calm -- 29.94 in1013.9 mb - 0.00 in0.0 mm 0.00 in0.0 mm
04:40 AM 47.4°F8.6°C 46.8°F8.2°C 98% Calm Calm 1.2 mph1.9 kmh 29.94 in1013.9 mb - 0.00 in0.0 mm 0.00 in0.0 mm
04:30 AM 47.6°F8.7°C 47.1°F8.4°C 98% Calm Calm -- 29.94 in1013.9 mb - 0.00 in0.0 mm 0.00 in0.0 mm
04:20 AM 47.9°F8.8°C 47.4°F8.6°C 98% Calm Calm -- 29.94 in1013.9 mb - 0.00 in0.0 mm 0.00 in0.0 mm
04:10 AM 48.0°F8.9°C 47.5°F8.6°C 98% Calm Calm -- 29.94 in1013.9 mb - 0.00 in0.0 mm 0.00 in0.0 mm
04:00 AM 48.0°F8.9°C 47.5°F8.6°C 98% Calm Calm -- 29.94 in1013.9 mb - 0.00 in0.0 mm 0.00 in0.0 mm
03:50 AM 48.1°F8.9°C 47.5°F8.6°C 98% Calm Calm -- 29.93 in1013.5 mb - 0.00 in0.0 mm 0.00 in0.0 mm
03:40 AM 48.3°F9.1°C 47.8°F8.8°C 98% Calm Calm -- 29.92 in1013.2 mb - 0.00 in0.0 mm 0.00 in0.0 mm
03:30 AM 48.6°F9.2°C 48.1°F8.9°C 98% Calm Calm -- 29.93 in1013.5 mb - 0.00 in0.0 mm 0.00 in0.0 mm
03:20 AM 49.0°F9.4°C 48.5°F9.2°C 98% Calm Calm -- 29.92 in1013.2 mb - 0.00 in0.0 mm 0.00 in0.0 mm
03:10 AM 49.2°F9.6°C 48.6°F9.2°C 98% Calm Calm -- 29.93 in1013.5 mb - 0.00 in0.0 mm 0.00 in0.0 mm
03:00 AM 49.4°F9.7°C 48.9°F9.4°C 98% Calm Calm -- 29.92 in1013.2 mb - 0.00 in0.0 mm 0.00 in0.0 mm
02:50 AM 49.7°F9.8°C 49.1°F9.5°C 98% Calm Calm -- 29.93 in1013.5 mb - 0.00 in0.0 mm 0.00 in0.0 mm
02:40 AM 49.3°F9.6°C 48.7°F9.3°C 98% Calm Calm -- 29.93 in1013.5 mb - 0.00 in0.0 mm 0.00 in0.0 mm
02:30 AM 49.2°F9.6°C 48.7°F9.3°C 98% Calm Calm -- 29.93 in1013.5 mb - 0.00 in0.0 mm 0.00 in0.0 mm
02:20 AM 49.7°F9.8°C 48.9°F9.4°C 97% Calm Calm -- 29.94 in1013.9 mb - 0.00 in0.0 mm 0.00 in0.0 mm
02:10 AM 50.0°F10.0°C 49.5°F9.7°C 98% Calm Calm -- 29.94 in1013.9 mb - 0.00 in0.0 mm 0.00 in0.0 mm
02:00 AM 50.4°F10.2°C 49.9°F9.9°C 98% Calm Calm -- 29.94 in1013.9 mb - 0.00 in0.0 mm 0.00 in0.0 mm
01:50 AM 50.2°F10.1°C 49.7°F9.8°C 98% Calm Calm -- 29.94 in1013.9 mb - 0.00 in0.0 mm 0.00 in0.0 mm
01:40 AM 50.2°F10.1°C 49.4°F9.7°C 97% Calm Calm -- 29.94 in1013.9 mb - 0.00 in0.0 mm 0.00 in0.0 mm
01:30 AM 50.4°F10.2°C 49.6°F9.8°C 97% Calm Calm -- 29.94 in1013.9 mb - 0.00 in0.0 mm 0.00 in0.0 mm
01:20 AM 50.6°F10.3°C 49.8°F9.9°C 97% Calm Calm -- 29.93 in1013.5 mb - 0.00 in0.0 mm 0.00 in0.0 mm
01:10 AM 50.7°F10.4°C 49.9°F9.9°C 97% Calm Calm -- 29.92 in1013.2 mb - 0.00 in0.0 mm 0.00 in0.0 mm
01:00 AM 50.8°F10.4°C 50.0°F10.0°C 97% Calm Calm -- 29.93 in1013.5 mb - 0.00 in0.0 mm 0.00 in0.0 mm
12:50 AM 51.3°F10.7°C 50.5°F10.3°C 97% Calm Calm -- 29.92 in1013.2 mb - 0.00 in0.0 mm 0.00 in0.0 mm
12:40 AM 51.7°F10.9°C 50.9°F10.5°C 97% Calm Calm -- 29.92 in1013.2 mb - 0.00 in0.0 mm 0.00 in0.0 mm
12:30 AM 51.9°F11.1°C 51.1°F10.6°C 97% Calm Calm -- 29.92 in1013.2 mb - 0.00 in0.0 mm 0.00 in0.0 mm
12:20 AM 52.2°F11.2°C 51.4°F10.8°C 97% Calm Calm -- 29.92 in1013.2 mb - 0.00 in0.0 mm 0.00 in0.0 mm
12:10 AM 52.4°F11.3°C 51.6°F10.9°C 97% Calm Calm -- 29.92 in1013.2 mb - 0.00 in0.0 mm 0.00 in0.0 mm
12:00 AM 52.6°F11.4°C 51.8°F11.0°C 97% Calm Calm -- 29.92 in1013.2 mb - 0.00 in0.0 mm 0.00 in0.0 mm